sensor_id;sensor_type;location;lat;lon;timestamp;P1;durP1;ratioP1;P2;durP2;ratioP2
75419;SDS011;63998;52.488;13.428;2022-10-15T00:00:36;33.35;;;17.67;;
75419;SDS011;63998;52.488;13.428;2022-10-15T00:03:04;23.35;;;13.50;;
75419;SDS011;63998;52.488;13.428;2022-10-15T00:05:29;24.63;;;14.10;;
75419;SDS011;63998;52.488;13.428;2022-10-15T00:08:02;22.67;;;14.15;;
75419;SDS011;63998;52.488;13.428;2022-10-15T00:10:27;29.30;;;14.77;;
75419;SDS011;63998;52.488;13.428;2022-10-15T00:12:53;22.83;;;13.38;;
75419;SDS011;63998;52.488;13.428;2022-10-15T00:15:18;30.07;;;16.00;;
75419;SDS011;63998;52.488;13.428;2022-10-15T00:17:44;27.48;;;14.82;;
75419;SDS011;63998;52.488;13.428;2022-10-15T00:20:09;31.23;;;16.92;;
75419;SDS011;63998;52.488;13.428;2022-10-15T00:22:36;24.17;;;14.00;;
75419;SDS011;63998;52.488;13.428;2022-10-15T00:25:03;18.75;;;13.38;;
75419;SDS011;63998;52.488;13.428;2022-10-15T00:27:32;25.02;;;15.13;;
75419;SDS011;63998;52.488;13.428;2022-10-15T00:29:58;29.38;;;16.00;;
75419;SDS011;63998;52.488;13.428;2022-10-15T00:32:27;25.75;;;14.35;;
75419;SDS011;63998;52.488;13.428;2022-10-15T00:34:53;22.42;;;14.27;;
75419;SDS011;63998;52.488;13.428;2022-10-15T00:37:21;24.33;;;15.18;;
75419;SDS011;63998;52.488;13.428;2022-10-15T00:39:51;24.90;;;14.85;;
75419;SDS011;63998;52.488;13.428;2022-10-15T00:42:16;28.30;;;16.23;;
75419;SDS011;63998;52.488;13.428;2022-10-15T00:44:48;21.48;;;14.20;;
75419;SDS011;63998;52.488;13.428;2022-10-15T00:50:16;26.88;;;14.32;;
75419;SDS011;63998;52.488;13.428;2022-10-15T00:55:36;24.02;;;14.55;;
75419;SDS011;63998;52.488;13.428;2022-10-15T00:58:06;25.17;;;14.15;;
75419;SDS011;63998;52.488;13.428;2022-10-15T01:00:40;24.33;;;14.38;;
75419;SDS011;63998;52.488;13.428;2022-10-15T01:03:06;23.65;;;14.18;;
75419;SDS011;63998;52.488;13.428;2022-10-15T01:05:34;23.58;;;14.07;;
75419;SDS011;63998;52.488;13.428;2022-10-15T01:08:01;25.75;;;15.60;;
75419;SDS011;63998;52.488;13.428;2022-10-15T01:10:28;26.57;;;14.67;;
75419;SDS011;63998;52.488;13.428;2022-10-15T01:13:17;20.75;;;12.60;;
75419;SDS011;63998;52.488;13.428;2022-10-15T01:15:56;23.17;;;12.63;;
75419;SDS011;63998;52.488;13.428;2022-10-15T01:18:37;25.75;;;13.02;;
75419;SDS011;63998;52.488;13.428;2022-10-15T01:30:04;25.70;;;13.68;;
75419;SDS011;63998;52.488;13.428;2022-10-15T01:43:22;22.13;;;12.32;;
75419;SDS011;63998;52.488;13.428;2022-10-15T01:45:57;25.52;;;13.07;;
75419;SDS011;63998;52.488;13.428;2022-10-15T01:48:28;23.88;;;13.45;;
75419;SDS011;63998;52.488;13.428;2022-10-15T01:50:56;20.98;;;12.70;;
75419;SDS011;63998;52.488;13.428;2022-10-15T01:53:27;21.25;;;12.82;;
75419;SDS011;63998;52.488;13.428;2022-10-15T01:55:57;22.13;;;13.30;;
75419;SDS011;63998;52.488;13.428;2022-10-15T01:58:28;23.70;;;13.82;;
75419;SDS011;63998;52.488;13.428;2022-10-15T02:01:01;21.00;;;12.75;;
75419;SDS011;63998;52.488;13.428;2022-10-15T02:03:27;22.67;;;13.80;;
75419;SDS011;63998;52.488;13.428;2022-10-15T02:05:58;23.15;;;13.32;;
75419;SDS011;63998;52.488;13.428;2022-10-15T02:08:47;21.95;;;13.95;;
75419;SDS011;63998;52.488;13.428;2022-10-15T02:11:21;22.20;;;13.48;;
75419;SDS011;63998;52.488;13.428;2022-10-15T02:21:46;22.50;;;12.68;;
75419;SDS011;63998;52.488;13.428;2022-10-15T02:24:14;22.77;;;13.23;;
75419;SDS011;63998;52.488;13.428;2022-10-15T02:26:46;20.27;;;12.63;;
75419;SDS011;63998;52.488;13.428;2022-10-15T02:29:15;23.50;;;12.77;;
75419;SDS011;63998;52.488;13.428;2022-10-15T02:31:45;20.00;;;12.43;;
75419;SDS011;63998;52.488;13.428;2022-10-15T02:34:14;26.05;;;13.50;;
75419;SDS011;63998;52.488;13.428;2022-10-15T02:36:44;22.48;;;12.77;;
75419;SDS011;63998;52.488;13.428;2022-10-15T02:39:12;22.13;;;12.65;;
75419;SDS011;63998;52.488;13.428;2022-10-15T02:41:41;21.83;;;13.23;;
75419;SDS011;63998;52.488;13.428;2022-10-15T02:44:07;22.30;;;13.00;;
75419;SDS011;63998;52.488;13.428;2022-10-15T02:46:33;21.15;;;12.18;;
75419;SDS011;63998;52.488;13.428;2022-10-15T02:48:58;25.13;;;12.80;;
75419;SDS011;63998;52.488;13.428;2022-10-15T02:51:23;22.43;;;13.47;;
75419;SDS011;63998;52.488;13.428;2022-10-15T02:53:49;25.15;;;13.60;;
75419;SDS011;63998;52.488;13.428;2022-10-15T02:56:14;23.33;;;13.73;;
75419;SDS011;63998;52.488;13.428;2022-10-15T02:58:40;22.20;;;13.20;;
75419;SDS011;63998;52.488;13.428;2022-10-15T03:01:05;22.13;;;12.77;;
75419;SDS011;63998;52.488;13.428;2022-10-15T03:03:35;21.05;;;12.65;;
75419;SDS011;63998;52.488;13.428;2022-10-15T03:06:02;22.15;;;12.52;;
75419;SDS011;63998;52.488;13.428;2022-10-15T03:08:30;22.73;;;12.93;;
75419;SDS011;63998;52.488;13.428;2022-10-15T03:10:58;22.87;;;14.00;;
75419;SDS011;63998;52.488;13.428;2022-10-15T03:13:27;21.40;;;13.23;;
75419;SDS011;63998;52.488;13.428;2022-10-15T03:15:53;22.58;;;13.45;;
75419;SDS011;63998;52.488;13.428;2022-10-15T03:18:18;22.17;;;13.00;;
75419;SDS011;63998;52.488;13.428;2022-10-15T03:20:43;22.17;;;12.60;;
75419;SDS011;63998;52.488;13.428;2022-10-15T03:23:11;22.95;;;13.73;;
75419;SDS011;63998;52.488;13.428;2022-10-15T03:25:41;22.65;;;13.70;;
75419;SDS011;63998;52.488;13.428;2022-10-15T03:28:07;20.92;;;12.93;;
75419;SDS011;63998;52.488;13.428;2022-10-15T03:30:32;24.20;;;13.63;;
75419;SDS011;63998;52.488;13.428;2022-10-15T03:32:57;21.40;;;13.40;;
75419;SDS011;63998;52.488;13.428;2022-10-15T03:37:53;22.23;;;12.90;;
75419;SDS011;63998;52.488;13.428;2022-10-15T03:40:18;21.00;;;13.40;;
75419;SDS011;63998;52.488;13.428;2022-10-15T03:42:44;22.15;;;12.57;;
75419;SDS011;63998;52.488;13.428;2022-10-15T03:45:14;22.58;;;13.07;;
75419;SDS011;63998;52.488;13.428;2022-10-15T03:47:39;21.80;;;13.63;;
75419;SDS011;63998;52.488;13.428;2022-10-15T03:50:07;23.20;;;13.70;;
75419;SDS011;63998;52.488;13.428;2022-10-15T03:52:36;21.33;;;12.70;;
75419;SDS011;63998;52.488;13.428;2022-10-15T03:55:02;23.38;;;13.30;;
75419;SDS011;63998;52.488;13.428;2022-10-15T03:59:55;22.73;;;13.43;;
75419;SDS011;63998;52.488;13.428;2022-10-15T04:02:20;24.40;;;13.55;;
75419;SDS011;63998;52.488;13.428;2022-10-15T04:04:46;21.30;;;13.73;;
75419;SDS011;63998;52.488;13.428;2022-10-15T04:07:11;25.63;;;13.67;;
75419;SDS011;63998;52.488;13.428;2022-10-15T04:09:37;21.63;;;13.60;;
75419;SDS011;63998;52.488;13.428;2022-10-15T04:12:02;24.40;;;14.13;;
75419;SDS011;63998;52.488;13.428;2022-10-15T04:14:28;22.58;;;13.55;;
75419;SDS011;63998;52.488;13.428;2022-10-15T04:16:54;23.17;;;13.23;;
75419;SDS011;63998;52.488;13.428;2022-10-15T04:19:25;23.85;;;13.63;;
75419;SDS011;63998;52.488;13.428;2022-10-15T04:21:53;20.75;;;13.02;;
75419;SDS011;63998;52.488;13.428;2022-10-15T04:24:20;24.02;;;12.77;;
75419;SDS011;63998;52.488;13.428;2022-10-15T04:26:46;24.08;;;12.98;;
75419;SDS011;63998;52.488;13.428;2022-10-15T04:29:14;23.35;;;13.77;;
75419;SDS011;63998;52.488;13.428;2022-10-15T04:31:39;23.02;;;13.40;;
75419;SDS011;63998;52.488;13.428;2022-10-15T04:34:07;21.35;;;12.95;;
75419;SDS011;63998;52.488;13.428;2022-10-15T04:36:35;25.73;;;13.10;;
75419;SDS011;63998;52.488;13.428;2022-10-15T04:39:01;21.13;;;12.75;;
75419;SDS011;63998;52.488;13.428;2022-10-15T04:41:27;18.65;;;12.32;;
75419;SDS011;63998;52.488;13.428;2022-10-15T04:43:52;22.83;;;14.27;;
75419;SDS011;63998;52.488;13.428;2022-10-15T04:46:18;25.70;;;13.07;;
75419;SDS011;63998;52.488;13.428;2022-10-15T04:48:46;24.65;;;13.40;;
75419;SDS011;63998;52.488;13.428;2022-10-15T04:51:15;20.50;;;12.82;;
75419;SDS011;63998;52.488;13.428;2022-10-15T04:53:42;20.77;;;12.63;;
75419;SDS011;63998;52.488;13.428;2022-10-15T04:56:12;37.22;;;19.48;;
75419;SDS011;63998;52.488;13.428;2022-10-15T04:58:42;25.85;;;13.88;;
75419;SDS011;63998;52.488;13.428;2022-10-15T05:01:09;23.92;;;13.00;;
75419;SDS011;63998;52.488;13.428;2022-10-15T05:03:39;19.95;;;11.63;;
75419;SDS011;63998;52.488;13.428;2022-10-15T05:06:07;23.23;;;13.10;;
75419;SDS011;63998;52.488;13.428;2022-10-15T05:08:34;22.98;;;13.25;;
75419;SDS011;63998;52.488;13.428;2022-10-15T05:11:04;20.92;;;11.57;;
75419;SDS011;63998;52.488;13.428;2022-10-15T05:13:31;21.27;;;12.85;;
75419;SDS011;63998;52.488;13.428;2022-10-15T05:15:57;17.40;;;11.32;;
75419;SDS011;63998;52.488;13.428;2022-10-15T05:18:33;19.48;;;11.70;;
75419;SDS011;63998;52.488;13.428;2022-10-15T05:21:00;23.27;;;12.25;;
75419;SDS011;63998;52.488;13.428;2022-10-15T05:23:25;19.45;;;12.15;;
75419;SDS011;63998;52.488;13.428;2022-10-15T05:25:53;22.75;;;12.75;;
75419;SDS011;63998;52.488;13.428;2022-10-15T05:28:18;22.87;;;11.87;;
75419;SDS011;63998;52.488;13.428;2022-10-15T05:30:44;19.65;;;11.32;;
75419;SDS011;63998;52.488;13.428;2022-10-15T05:33:09;19.30;;;11.63;;
75419;SDS011;63998;52.488;13.428;2022-10-15T05:35:35;20.92;;;12.13;;
75419;SDS011;63998;52.488;13.428;2022-10-15T05:38:01;20.60;;;12.52;;
75419;SDS011;63998;52.488;13.428;2022-10-15T05:40:28;18.30;;;11.65;;
75419;SDS011;63998;52.488;13.428;2022-10-15T05:42:56;19.63;;;11.23;;
75419;SDS011;63998;52.488;13.428;2022-10-15T05:45:23;19.80;;;11.23;;
75419;SDS011;63998;52.488;13.428;2022-10-15T05:47:52;17.77;;;11.35;;
75419;SDS011;63998;52.488;13.428;2022-10-15T05:50:18;17.02;;;11.23;;
75419;SDS011;63998;52.488;13.428;2022-10-15T05:52:44;33.50;;;23.67;;
75419;SDS011;63998;52.488;13.428;2022-10-15T05:55:09;24.77;;;15.00;;
75419;SDS011;63998;52.488;13.428;2022-10-15T05:57:37;19.38;;;11.65;;
75419;SDS011;63998;52.488;13.428;2022-10-15T06:00:06;19.42;;;11.60;;
75419;SDS011;63998;52.488;13.428;2022-10-15T06:02:35;18.15;;;11.55;;
75419;SDS011;63998;52.488;13.428;2022-10-15T06:05:00;20.27;;;11.00;;
75419;SDS011;63998;52.488;13.428;2022-10-15T06:07:28;20.08;;;11.57;;
75419;SDS011;63998;52.488;13.428;2022-10-15T06:09:57;17.95;;;11.90;;
75419;SDS011;63998;52.488;13.428;2022-10-15T06:12:25;18.80;;;11.17;;
75419;SDS011;63998;52.488;13.428;2022-10-15T06:14:50;18.40;;;11.55;;
75419;SDS011;63998;52.488;13.428;2022-10-15T06:17:16;17.87;;;11.17;;
75419;SDS011;63998;52.488;13.428;2022-10-15T06:19:41;18.27;;;11.27;;
75419;SDS011;63998;52.488;13.428;2022-10-15T06:22:06;16.73;;;10.97;;
75419;SDS011;63998;52.488;13.428;2022-10-15T06:24:36;18.65;;;12.18;;
75419;SDS011;63998;52.488;13.428;2022-10-15T06:27:04;18.35;;;11.57;;
75419;SDS011;63998;52.488;13.428;2022-10-15T06:29:29;18.23;;;11.73;;
75419;SDS011;63998;52.488;13.428;2022-10-15T06:31:57;22.03;;;12.50;;
75419;SDS011;63998;52.488;13.428;2022-10-15T06:34:22;17.60;;;11.52;;
75419;SDS011;63998;52.488;13.428;2022-10-15T06:36:50;18.98;;;12.00;;
75419;SDS011;63998;52.488;13.428;2022-10-15T06:39:15;16.17;;;11.13;;
75419;SDS011;63998;52.488;13.428;2022-10-15T06:41:45;17.17;;;10.88;;
75419;SDS011;63998;52.488;13.428;2022-10-15T06:44:17;19.23;;;11.75;;
75419;SDS011;63998;52.488;13.428;2022-10-15T06:46:48;21.73;;;11.95;;
75419;SDS011;63998;52.488;13.428;2022-10-15T06:49:16;19.15;;;12.32;;
75419;SDS011;63998;52.488;13.428;2022-10-15T06:51:41;20.20;;;12.73;;
75419;SDS011;63998;52.488;13.428;2022-10-15T06:54:06;21.27;;;13.10;;
75419;SDS011;63998;52.488;13.428;2022-10-15T06:56:34;18.02;;;11.43;;
75419;SDS011;63998;52.488;13.428;2022-10-15T06:58:59;23.02;;;12.60;;
75419;SDS011;63998;52.488;13.428;2022-10-15T07:01:25;20.87;;;12.47;;
75419;SDS011;63998;52.488;13.428;2022-10-15T07:03:50;19.63;;;12.02;;
75419;SDS011;63998;52.488;13.428;2022-10-15T07:06:16;21.00;;;12.68;;
75419;SDS011;63998;52.488;13.428;2022-10-15T07:08:44;21.58;;;11.98;;
75419;SDS011;63998;52.488;13.428;2022-10-15T07:11:11;21.23;;;13.68;;
75419;SDS011;63998;52.488;13.428;2022-10-15T07:13:37;21.83;;;12.00;;
75419;SDS011;63998;52.488;13.428;2022-10-15T07:16:09;18.67;;;11.23;;
75419;SDS011;63998;52.488;13.428;2022-10-15T07:18:38;15.38;;;10.50;;
75419;SDS011;63998;52.488;13.428;2022-10-15T07:21:06;17.10;;;10.82;;
75419;SDS011;63998;52.488;13.428;2022-10-15T07:23:34;19.08;;;11.75;;
75419;SDS011;63998;52.488;13.428;2022-10-15T07:25:59;17.93;;;10.80;;
75419;SDS011;63998;52.488;13.428;2022-10-15T07:28:27;16.92;;;10.43;;
75419;SDS011;63998;52.488;13.428;2022-10-15T07:30:58;20.30;;;11.32;;
75419;SDS011;63998;52.488;13.428;2022-10-15T07:33:24;16.58;;;10.18;;
75419;SDS011;63998;52.488;13.428;2022-10-15T07:35:50;19.27;;;10.75;;
75419;SDS011;63998;52.488;13.428;2022-10-15T07:38:15;17.87;;;10.60;;
75419;SDS011;63998;52.488;13.428;2022-10-15T07:40:41;15.75;;;9.23;;
75419;SDS011;63998;52.488;13.428;2022-10-15T07:43:07;15.40;;;9.98;;
75419;SDS011;63998;52.488;13.428;2022-10-15T07:45:32;15.63;;;9.87;;
75419;SDS011;63998;52.488;13.428;2022-10-15T07:47:58;18.10;;;10.30;;
75419;SDS011;63998;52.488;13.428;2022-10-15T07:50:25;14.52;;;9.20;;
75419;SDS011;63998;52.488;13.428;2022-10-15T07:52:53;17.08;;;10.20;;
75419;SDS011;63998;52.488;13.428;2022-10-15T07:55:18;12.77;;;8.23;;
75419;SDS011;63998;52.488;13.428;2022-10-15T07:57:44;14.20;;;8.27;;
75419;SDS011;63998;52.488;13.428;2022-10-15T08:00:09;14.77;;;9.00;;
75419;SDS011;63998;52.488;13.428;2022-10-15T08:02:35;12.20;;;8.75;;
75419;SDS011;63998;52.488;13.428;2022-10-15T08:05:00;14.03;;;8.60;;
75419;SDS011;63998;52.488;13.428;2022-10-15T08:07:25;15.10;;;9.47;;
75419;SDS011;63998;52.488;13.428;2022-10-15T08:09:53;13.18;;;8.32;;
75419;SDS011;63998;52.488;13.428;2022-10-15T08:12:20;12.40;;;8.25;;
75419;SDS011;63998;52.488;13.428;2022-10-15T08:14:48;13.02;;;7.90;;
75419;SDS011;63998;52.488;13.428;2022-10-15T08:17:13;14.53;;;8.83;;
75419;SDS011;63998;52.488;13.428;2022-10-15T08:19:39;12.77;;;7.90;;
75419;SDS011;63998;52.488;13.428;2022-10-15T08:22:04;11.47;;;7.43;;
75419;SDS011;63998;52.488;13.428;2022-10-15T08:24:32;11.00;;;8.40;;
75419;SDS011;63998;52.488;13.428;2022-10-15T08:27:00;11.63;;;8.00;;
75419;SDS011;63998;52.488;13.428;2022-10-15T08:29:25;11.43;;;7.68;;
75419;SDS011;63998;52.488;13.428;2022-10-15T08:31:53;12.98;;;7.55;;
75419;SDS011;63998;52.488;13.428;2022-10-15T08:34:18;24.77;;;14.97;;
75419;SDS011;63998;52.488;13.428;2022-10-15T08:36:43;12.87;;;7.93;;
75419;SDS011;63998;52.488;13.428;2022-10-15T08:39:11;12.10;;;8.73;;
75419;SDS011;63998;52.488;13.428;2022-10-15T08:41:38;9.43;;;7.20;;
75419;SDS011;63998;52.488;13.428;2022-10-15T08:44:12;9.25;;;6.45;;
75419;SDS011;63998;52.488;13.428;2022-10-15T08:46:49;10.93;;;6.68;;
75419;SDS011;63998;52.488;13.428;2022-10-15T08:52:24;7.93;;;6.15;;
75419;SDS011;63998;52.488;13.428;2022-10-15T08:54:53;8.52;;;6.25;;
75419;SDS011;63998;52.488;13.428;2022-10-15T09:00:34;9.77;;;6.93;;
75419;SDS011;63998;52.488;13.428;2022-10-15T09:08:30;12.05;;;8.77;;
75419;SDS011;63998;52.488;13.428;2022-10-15T09:12:08;9.65;;;6.22;;
75419;SDS011;63998;52.488;13.428;2022-10-15T09:14:04;14.00;;;9.30;;
75419;SDS011;63998;52.488;13.428;2022-10-15T09:16:37;12.00;;;7.78;;
75419;SDS011;63998;52.488;13.428;2022-10-15T09:19:08;14.82;;;10.13;;
75419;SDS011;63998;52.488;13.428;2022-10-15T09:21:41;11.30;;;7.85;;
75419;SDS011;63998;52.488;13.428;2022-10-15T09:24:12;11.30;;;7.45;;
75419;SDS011;63998;52.488;13.428;2022-10-15T09:30:06;17.23;;;11.27;;
75419;SDS011;63998;52.488;13.428;2022-10-15T09:33:02;17.30;;;12.55;;
75419;SDS011;63998;52.488;13.428;2022-10-15T09:35:52;13.05;;;9.15;;
75419;SDS011;63998;52.488;13.428;2022-10-15T09:38:28;10.35;;;6.90;;
75419;SDS011;63998;52.488;13.428;2022-10-15T09:44:01;10.45;;;6.95;;
75419;SDS011;63998;52.488;13.428;2022-10-15T09:46:27;8.90;;;6.32;;
75419;SDS011;63998;52.488;13.428;2022-10-15T09:49:05;10.85;;;7.50;;
75419;SDS011;63998;52.488;13.428;2022-10-15T09:51:37;8.35;;;6.20;;
75419;SDS011;63998;52.488;13.428;2022-10-15T09:54:18;8.35;;;6.07;;
75419;SDS011;63998;52.488;13.428;2022-10-15T09:57:10;10.13;;;6.55;;
75419;SDS011;63998;52.488;13.428;2022-10-15T09:59:56;9.77;;;6.53;;
75419;SDS011;63998;52.488;13.428;2022-10-15T10:02:25;7.93;;;5.90;;
75419;SDS011;63998;52.488;13.428;2022-10-15T10:04:51;8.60;;;6.43;;
75419;SDS011;63998;52.488;13.428;2022-10-15T10:07:33;7.82;;;5.85;;
75419;SDS011;63998;52.488;13.428;2022-10-15T10:10:06;9.57;;;6.00;;
75419;SDS011;63998;52.488;13.428;2022-10-15T10:12:51;9.70;;;5.65;;
75419;SDS011;63998;52.488;13.428;2022-10-15T10:17:53;7.75;;;6.57;;
75419;SDS011;63998;52.488;13.428;2022-10-15T10:20:20;8.13;;;4.82;;
75419;SDS011;63998;52.488;13.428;2022-10-15T10:22:56;6.70;;;5.38;;
75419;SDS011;63998;52.488;13.428;2022-10-15T10:25:45;7.22;;;5.40;;
75419;SDS011;63998;52.488;13.428;2022-10-15T10:31:23;12.33;;;6.13;;
75419;SDS011;63998;52.488;13.428;2022-10-15T10:33:25;9.98;;;6.68;;
75419;SDS011;63998;52.488;13.428;2022-10-15T10:35:53;7.55;;;5.68;;
75419;SDS011;63998;52.488;13.428;2022-10-15T10:41:08;7.88;;;6.30;;
75419;SDS011;63998;52.488;13.428;2022-10-15T10:43:38;7.65;;;5.35;;
75419;SDS011;63998;52.488;13.428;2022-10-15T10:48:39;16.42;;;11.43;;
75419;SDS011;63998;52.488;13.428;2022-10-15T10:51:11;12.13;;;8.77;;
75419;SDS011;63998;52.488;13.428;2022-10-15T10:53:54;7.28;;;6.30;;
75419;SDS011;63998;52.488;13.428;2022-10-15T10:56:23;10.50;;;7.28;;
75419;SDS011;63998;52.488;13.428;2022-10-15T11:01:42;8.05;;;5.15;;
75419;SDS011;63998;52.488;13.428;2022-10-15T11:04:24;7.80;;;5.80;;
75419;SDS011;63998;52.488;13.428;2022-10-15T11:09:46;8.20;;;5.88;;
75419;SDS011;63998;52.488;13.428;2022-10-15T11:12:46;7.00;;;5.00;;
75419;SDS011;63998;52.488;13.428;2022-10-15T11:21:09;8.10;;;5.50;;
75419;SDS011;63998;52.488;13.428;2022-10-15T11:23:40;7.55;;;5.45;;
75419;SDS011;63998;52.488;13.428;2022-10-15T11:29:52;6.95;;;5.40;;
75419;SDS011;63998;52.488;13.428;2022-10-15T11:32:37;6.25;;;4.88;;
75419;SDS011;63998;52.488;13.428;2022-10-15T11:35:08;8.07;;;5.03;;
75419;SDS011;63998;52.488;13.428;2022-10-15T11:38:03;6.22;;;4.38;;
75419;SDS011;63998;52.488;13.428;2022-10-15T11:43:30;8.40;;;4.68;;
75419;SDS011;63998;52.488;13.428;2022-10-15T11:48:58;35.78;;;27.42;;
75419;SDS011;63998;52.488;13.428;2022-10-15T11:59:57;5.90;;;4.03;;
75419;SDS011;63998;52.488;13.428;2022-10-15T12:02:36;5.78;;;4.25;;
75419;SDS011;63998;52.488;13.428;2022-10-15T12:15:19;5.60;;;4.28;;
75419;SDS011;63998;52.488;13.428;2022-10-15T12:18:16;5.22;;;4.20;;
75419;SDS011;63998;52.488;13.428;2022-10-15T12:20:57;6.78;;;4.95;;
75419;SDS011;63998;52.488;13.428;2022-10-15T12:26:00;5.85;;;4.70;;
75419;SDS011;63998;52.488;13.428;2022-10-15T12:28:26;5.18;;;4.22;;
75419;SDS011;63998;52.488;13.428;2022-10-15T12:31:01;5.05;;;4.03;;
75419;SDS011;63998;52.488;13.428;2022-10-15T12:35:58;6.50;;;4.67;;
75419;SDS011;63998;52.488;13.428;2022-10-15T12:38:39;4.15;;;3.75;;
75419;SDS011;63998;52.488;13.428;2022-10-15T12:41:14;6.22;;;4.30;;
75419;SDS011;63998;52.488;13.428;2022-10-15T12:43:40;5.00;;;4.10;;
75419;SDS011;63998;52.488;13.428;2022-10-15T12:46:09;4.40;;;3.85;;
75419;SDS011;63998;52.488;13.428;2022-10-15T12:51:27;6.05;;;4.13;;
75419;SDS011;63998;52.488;13.428;2022-10-15T12:53:53;4.30;;;3.63;;
75419;SDS011;63998;52.488;13.428;2022-10-15T12:56:23;4.97;;;3.58;;
75419;SDS011;63998;52.488;13.428;2022-10-15T13:11:30;3.65;;;3.30;;
75419;SDS011;63998;52.488;13.428;2022-10-15T13:17:13;5.35;;;2.95;;
75419;SDS011;63998;52.488;13.428;2022-10-15T13:20:04;4.22;;;3.00;;
75419;SDS011;63998;52.488;13.428;2022-10-15T13:22:35;3.25;;;2.90;;
75419;SDS011;63998;52.488;13.428;2022-10-15T13:25:01;4.70;;;3.55;;
75419;SDS011;63998;52.488;13.428;2022-10-15T13:27:34;3.00;;;2.63;;
75419;SDS011;63998;52.488;13.428;2022-10-15T13:30:10;4.00;;;2.95;;
75419;SDS011;63998;52.488;13.428;2022-10-15T13:32:39;4.22;;;3.17;;
75419;SDS011;63998;52.488;13.428;2022-10-15T13:35:11;5.22;;;3.78;;
75419;SDS011;63998;52.488;13.428;2022-10-15T13:37:41;4.85;;;3.22;;
75419;SDS011;63998;52.488;13.428;2022-10-15T13:40:16;4.13;;;3.13;;
75419;SDS011;63998;52.488;13.428;2022-10-15T13:45:55;3.92;;;3.13;;
75419;SDS011;63998;52.488;13.428;2022-10-15T13:48:29;4.22;;;3.45;;
75419;SDS011;63998;52.488;13.428;2022-10-15T13:50:59;4.13;;;3.33;;
75419;SDS011;63998;52.488;13.428;2022-10-15T13:53:30;3.90;;;3.20;;
75419;SDS011;63998;52.488;13.428;2022-10-15T13:56:13;4.60;;;3.15;;
75419;SDS011;63998;52.488;13.428;2022-10-15T13:58:53;3.88;;;3.00;;
75419;SDS011;63998;52.488;13.428;2022-10-15T14:01:22;4.00;;;3.30;;
75419;SDS011;63998;52.488;13.428;2022-10-15T14:03:52;4.45;;;3.17;;
75419;SDS011;63998;52.488;13.428;2022-10-15T14:06:37;3.80;;;2.90;;
75419;SDS011;63998;52.488;13.428;2022-10-15T14:11:45;4.13;;;2.80;;
75419;SDS011;63998;52.488;13.428;2022-10-15T14:16:57;4.45;;;3.83;;
75419;SDS011;63998;52.488;13.428;2022-10-15T14:19:26;5.53;;;3.50;;
75419;SDS011;63998;52.488;13.428;2022-10-15T14:21:57;5.70;;;3.58;;
75419;SDS011;63998;52.488;13.428;2022-10-15T14:24:31;3.35;;;3.05;;
75419;SDS011;63998;52.488;13.428;2022-10-15T14:27:01;3.58;;;3.28;;
75419;SDS011;63998;52.488;13.428;2022-10-15T14:29:48;4.45;;;3.25;;
75419;SDS011;63998;52.488;13.428;2022-10-15T14:32:20;4.65;;;3.50;;
75419;SDS011;63998;52.488;13.428;2022-10-15T14:34:48;3.83;;;3.03;;
75419;SDS011;63998;52.488;13.428;2022-10-15T14:42:38;4.82;;;3.33;;
75419;SDS011;63998;52.488;13.428;2022-10-15T14:47:39;3.53;;;3.15;;
75419;SDS011;63998;52.488;13.428;2022-10-15T14:50:05;5.28;;;3.60;;
75419;SDS011;63998;52.488;13.428;2022-10-15T14:52:36;4.65;;;3.53;;
75419;SDS011;63998;52.488;13.428;2022-10-15T14:58:05;3.95;;;3.10;;
75419;SDS011;63998;52.488;13.428;2022-10-15T15:00:33;7.10;;;4.10;;
75419;SDS011;63998;52.488;13.428;2022-10-15T15:03:04;4.85;;;2.90;;
75419;SDS011;63998;52.488;13.428;2022-10-15T15:05:31;5.13;;;2.75;;
75419;SDS011;63998;52.488;13.428;2022-10-15T15:08:08;3.75;;;2.67;;
75419;SDS011;63998;52.488;13.428;2022-10-15T15:10:34;3.57;;;2.57;;
75419;SDS011;63998;52.488;13.428;2022-10-15T15:12:59;3.67;;;2.33;;
75419;SDS011;63998;52.488;13.428;2022-10-15T15:15:28;3.90;;;2.40;;
75419;SDS011;63998;52.488;13.428;2022-10-15T15:17:53;2.22;;;1.90;;
75419;SDS011;63998;52.488;13.428;2022-10-15T15:20:21;3.50;;;2.60;;
75419;SDS011;63998;52.488;13.428;2022-10-15T15:22:48;2.67;;;2.47;;
75419;SDS011;63998;52.488;13.428;2022-10-15T15:27:45;5.85;;;3.67;;
75419;SDS011;63998;52.488;13.428;2022-10-15T15:30:17;5.82;;;3.55;;
75419;SDS011;63998;52.488;13.428;2022-10-15T15:32:47;3.92;;;3.00;;
75419;SDS011;63998;52.488;13.428;2022-10-15T15:35:29;5.13;;;3.33;;
75419;SDS011;63998;52.488;13.428;2022-10-15T15:38:04;7.28;;;3.90;;
75419;SDS011;63998;52.488;13.428;2022-10-15T15:40:31;6.70;;;4.72;;
75419;SDS011;63998;52.488;13.428;2022-10-15T15:42:57;4.50;;;3.70;;
75419;SDS011;63998;52.488;13.428;2022-10-15T15:45:23;5.18;;;3.80;;
75419;SDS011;63998;52.488;13.428;2022-10-15T15:47:52;4.47;;;3.42;;
75419;SDS011;63998;52.488;13.428;2022-10-15T15:50:23;8.77;;;4.28;;
75419;SDS011;63998;52.488;13.428;2022-10-15T15:52:51;9.25;;;4.30;;
75419;SDS011;63998;52.488;13.428;2022-10-15T15:55:17;7.43;;;5.05;;
75419;SDS011;63998;52.488;13.428;2022-10-15T15:57:42;8.38;;;5.40;;
75419;SDS011;63998;52.488;13.428;2022-10-15T16:00:09;7.53;;;4.80;;
75419;SDS011;63998;52.488;13.428;2022-10-15T16:02:36;8.43;;;5.72;;
75419;SDS011;63998;52.488;13.428;2022-10-15T16:05:03;9.82;;;5.97;;
75419;SDS011;63998;52.488;13.428;2022-10-15T16:07:32;9.50;;;7.47;;
75419;SDS011;63998;52.488;13.428;2022-10-15T16:09:58;8.38;;;7.28;;
75419;SDS011;63998;52.488;13.428;2022-10-15T16:12:26;5.25;;;4.05;;
75419;SDS011;63998;52.488;13.428;2022-10-15T16:14:51;6.00;;;5.25;;
75419;SDS011;63998;52.488;13.428;2022-10-15T16:17:16;7.17;;;6.47;;
75419;SDS011;63998;52.488;13.428;2022-10-15T16:19:42;8.88;;;6.80;;
75419;SDS011;63998;52.488;13.428;2022-10-15T16:22:07;7.93;;;5.57;;
75419;SDS011;63998;52.488;13.428;2022-10-15T16:24:33;12.52;;;7.60;;
75419;SDS011;63998;52.488;13.428;2022-10-15T16:26:58;10.13;;;8.35;;
75419;SDS011;63998;52.488;13.428;2022-10-15T16:29:24;9.68;;;8.48;;
75419;SDS011;63998;52.488;13.428;2022-10-15T16:31:49;9.30;;;7.22;;
75419;SDS011;63998;52.488;13.428;2022-10-15T16:34:14;14.23;;;11.33;;
75419;SDS011;63998;52.488;13.428;2022-10-15T16:36:40;15.13;;;10.70;;
75419;SDS011;63998;52.488;13.428;2022-10-15T16:39:05;20.87;;;17.67;;
75419;SDS011;63998;52.488;13.428;2022-10-15T16:41:33;22.65;;;16.08;;
75419;SDS011;63998;52.488;13.428;2022-10-15T16:44:00;22.48;;;16.85;;
75419;SDS011;63998;52.488;13.428;2022-10-15T16:46:25;35.37;;;27.53;;
75419;SDS011;63998;52.488;13.428;2022-10-15T16:48:51;30.42;;;25.48;;
75419;SDS011;63998;52.488;13.428;2022-10-15T16:51:18;20.25;;;15.88;;
75419;SDS011;63998;52.488;13.428;2022-10-15T16:53:44;19.67;;;13.02;;
75419;SDS011;63998;52.488;13.428;2022-10-15T16:56:13;15.02;;;12.90;;
75419;SDS011;63998;52.488;13.428;2022-10-15T16:58:40;21.52;;;15.90;;
75419;SDS011;63998;52.488;13.428;2022-10-15T17:01:07;36.22;;;28.70;;
75419;SDS011;63998;52.488;13.428;2022-10-15T17:03:36;109.20;;;58.28;;